Latest Weather Observations for Gladstone Airport

IDQ60801

Issued at 11:32 pm EST Tuesday 12 December 2017 (issued every 30 minutes, with the page automatically refreshed every 10 minutes)

About weather observations | Map of weather stations | Latest weather observations for QLD | Other Formats
Station Details ID: 039326 Name: GLADSTONE AIRPORT Lat: -23.87 Lon: 151.22 Height: 16.6 m
Data from the previous 72 hours. | See also: Recent months at Gladstone Airport
Date/Time
EST
Temp
°C
App
Temp
°C
Dew
Point
°C
Rel
Hum
%
Delta-T
°C
Wind Press
QNH
hPa
Press
MSL
hPa
Rain since
9am
mm
Dir  Spd
km/h
Gust
km/h
Spd
kts
Gust
kts
12/11:30pm 23.6 23.8 17.6 69 3.7 SSE 13 20 7 11 1014.5 1014.4 0.0
12/11:00pm 23.7 24.5 18.1 71 3.5 SSE 11 17 6 9 1014.7 1014.6 0.0
12/10:30pm 24.1 25.0 18.3 70 3.7 SSE 11 17 6 9 1014.9 1014.8 0.0
12/10:00pm 24.7 24.0 18.2 67 4.1 SE 19 24 10 13 1015.0 1014.9 0.0
12/09:30pm 24.9 24.0 18.1 66 4.3 SE 20 33 11 18 1014.9 1014.8 0.0
12/09:00pm 25.0 24.2 18.0 65 4.4 ESE 19 30 10 16 1014.9 1014.8 0.0
12/08:30pm 25.3 23.6 18.0 64 4.6 ESE 24 37 13 20 1014.7 1014.6 0.0
12/08:00pm 25.5 23.9 18.4 65 4.5 ESE 24 33 13 18 1014.5 1014.4 0.0
12/07:30pm 25.5 22.9 17.9 63 4.8 ESE 28 35 15 19 1014.3 1014.2 0.0
12/07:00pm 25.8 22.8 17.7 61 5.1 ESE 30 39 16 21 1014.1 1014.0 0.0
12/06:30pm 26.1 23.0 17.5 59 5.4 ESE 30 41 16 22 1013.8 1013.7 0.0
12/06:00pm 26.5 24.2 18.4 61 5.2 E 28 43 15 23 1013.4 1013.3 0.0
12/05:30pm 26.8 23.8 18.6 60 5.2 E 32 43 17 23 1013.1 1013.0 0.0
12/05:00pm 27.2 24.0 18.2 58 5.7 E 32 44 17 24 1012.9 1012.8 0.0
12/04:30pm 27.5 23.6 17.9 55 6.1 E 35 44 19 24 1012.6 1012.5 0.0
12/04:00pm 28.4 24.6 17.3 51 7.0 E 33 41 18 22 1012.6 1012.5 0.0
12/03:30pm 28.5 24.8 17.4 51 7.0 E 33 44 18 24 1012.5 1012.4 0.0
12/03:00pm 28.7 25.2 16.6 48 7.5 ESE 30 43 16 23 1012.6 1012.5 0.0
12/02:30pm 29.4 26.9 17.2 47 7.7 E 26 35 14 19 1012.8 1012.7 0.0
12/02:00pm 29.4 26.1 15.1 41 8.7 E 26 35 14 19 1013.0 1012.9 0.0
12/01:30pm 29.3 27.3 16.5 46 8.0 E 22 30 12 16 1013.2 1013.1 0.0
12/01:00pm 29.2 27.4 16.0 44 8.2 E 20 28 11 15 1013.4 1013.3 0.0
12/12:30pm 28.3 27.1 16.2 47 7.5 E 17 26 9 14 1013.7 1013.6 0.0
12/12:00pm 28.3 27.0 14.9 44 8.1 ESE 15 32 8 17 1013.9 1013.8 0.0
12/11:30am 28.1 26.8 15.7 46 7.6 ESE 17 26 9 14 1014.3 1014.2 0.0
12/11:00am 27.3 26.2 16.3 51 6.8 SE 17 24 9 13 1014.6 1014.5 0.0
12/10:30am 27.6 26.3 16.9 52 6.7 SE 19 28 10 15 1015.0 1014.9 0.0
12/10:00am 26.3 24.9 16.5 54 6.0 SE 19 30 10 16 1015.3 1015.2 0.0
12/09:30am 26.6 25.6 16.5 54 6.2 SE 17 28 9 15 1015.2 1015.1 0.0
12/09:00am 26.9 25.8 17.7 57 5.8 SE 20 30 11 16 1015.3 1015.2 4.6
12/08:30am 26.1 24.9 17.5 59 5.4 SE 20 32 11 17 1015.3 1015.2 4.6
12/08:00am 25.4 23.7 17.1 60 5.2 SSE 22 32 12 17 1015.0 1014.9 4.6
12/07:30am 24.5 23.6 17.7 66 4.3 SSE 19 26 10 14 1015.0 1014.9 4.6
12/07:00am 23.8 22.7 17.8 69 3.7 SE 20 28 11 15 1014.9 1014.8 4.6
12/06:30am 23.2 22.7 17.7 71 3.4 SSE 17 24 9 13 1014.6 1014.5 4.6
12/06:00am 22.7 22.6 17.8 74 3.0 SSE 15 22 8 12 1014.3 1014.2 4.6
12/05:30am 21.7 22.8 17.9 79 2.4 S 9 13 5 7 1014.0 1013.9 4.6
12/05:00am 21.8 22.5 18.0 79 2.4 S 11 15 6 8 1013.8 1013.7 4.6
12/04:30am 21.9 22.6 17.9 78 2.5 SSE 11 20 6 11 1013.6 1013.5 4.6
12/04:00am 21.4 22.4 17.8 80 2.2 S 9 11 5 6 1013.4 1013.3 4.6
12/03:30am 21.2 22.1 17.6 80 2.2 S 9 13 5 7 1013.5 1013.4 4.6
12/03:00am 21.2 22.5 17.6 80 2.2 S 7 13 4 7 1013.4 1013.3 4.6
12/02:30am 21.5 22.5 17.7 79 2.3 S 9 17 5 9 1013.6 1013.5 4.6
12/02:00am 21.7 22.8 17.9 79 2.4 S 9 15 5 8 1013.9 1013.8 4.6
12/01:30am 22.0 23.2 18.2 79 2.4 S 9 13 5 7 1013.9 1013.8 4.6
12/01:00am 21.7 22.8 18.1 80 2.2 SSW 9 13 5 7 1014.1 1014.0 4.6
12/12:30am 21.7 23.2 18.1 80 2.2 SSW 7 13 4 7 1014.6 1014.5 4.6
12/12:00am 21.8 23.4 18.2 80 2.2 S 7 9 4 5 1014.9 1014.8 4.6
 
Date/Time
EST
Temp
°C
App
Temp
°C
Dew
Point
°C
Rel
Hum
%
Delta-T
°C
Wind Press
QNH
hPa
Press
MSL
hPa
Rain since
9am
mm
Dir  Spd
km/h
Gust
km/h
Spd
kts
Gust
kts
11/11:30pm 21.8 23.6 18.2 80 2.2 SSW 6 9 3 5 1015.1 1015.0 4.6
11/11:00pm 22.0 23.6 18.2 79 2.4 SW 7 9 4 5 1015.2 1015.1 4.6
11/10:30pm 22.4 24.2 18.4 78 2.5 SW 6 7 3 4 1015.4 1015.3 4.6
11/10:00pm 22.9 24.6 18.0 74 3.1 S 6 9 3 5 1015.3 1015.2 4.6
11/09:30pm 23.1 24.8 18.4 75 3.0 SSE 7 9 4 5 1015.3 1015.2 4.6
11/09:00pm 23.3 24.9 18.2 73 3.2 S 7 9 4 5 1015.0 1014.9 4.6
11/08:30pm 23.7 25.5 18.4 72 3.3 S 6 9 3 5 1014.7 1014.6 4.6
11/08:00pm 23.8 25.6 18.4 72 3.4 SSE 6 9 3 5 1014.4 1014.3 4.6
11/07:30pm 24.4 25.6 18.3 69 3.8 SSE 9 17 5 9 1014.4 1014.3 4.6
11/07:00pm 25.4 24.6 18.1 64 4.6 ESE 19 28 10 15 1014.0 1013.9 4.6
11/06:30pm 25.6 25.0 18.5 65 4.5 ESE 19 28 10 15 1013.9 1013.8 4.6
11/06:00pm 25.6 25.6 19.0 67 4.2 ESE 17 24 9 13 1013.6 1013.5 4.6
11/05:30pm 26.3 24.9 18.9 63 4.7 ESE 24 32 13 17 1013.4 1013.3 4.6
11/05:00pm 27.0 25.9 19.4 63 4.9 E 24 32 13 17 1013.3 1013.2 4.6
11/04:30pm 26.6 25.7 19.0 63 4.9 E 22 28 12 15 1012.9 1012.8 4.6
11/04:00pm 26.1 26.1 19.0 65 4.6 ESE 17 24 9 13 1012.7 1012.6 4.6
11/03:30pm 26.5 24.4 18.1 60 5.3 ESE 26 37 14 20 1012.9 1012.8 4.6
11/03:00pm 27.0 24.8 17.8 57 5.8 ESE 26 32 14 17 1013.0 1012.9 4.6
11/02:30pm 27.6 25.5 17.2 53 6.5 ESE 24 30 13 16 1013.3 1013.2 4.6
11/02:00pm 27.6 25.9 18.0 55 6.1 ESE 24 32 13 17 1013.6 1013.5 4.6
11/01:30pm 28.4 28.0 18.8 56 6.2 E 19 24 10 13 1013.6 1013.5 4.6
11/01:00pm 27.3 27.8 20.1 64 4.7 ESE 17 20 9 11 1014.0 1013.9 4.6
11/12:30pm 26.8 27.4 18.6 60 5.2 E 13 19 7 10 1014.5 1014.4 4.6
11/12:00pm 24.3 26.7 20.8 81 2.3 ESE 9 17 5 9 1015.2 1015.1 4.6
11/11:58am 24.1 25.8 19.4 75 3.0 ESE 9 17 5 9 1015.2 1015.1 4.6
11/11:34am 24.2 23.1 19.5 75 3.0 ESE 24 39 13 21 1015.7 1015.6 0.8
11/11:30am 26.1 26.0 20.7 72 3.5 ESE 22 39 12 21 1015.5 1015.4 0.0
11/11:00am 28.1 26.4 18.2 55 6.3 ESE 24 32 13 17 1015.6 1015.5 0.0
11/10:30am 27.5 26.3 17.4 54 6.4 ESE 20 32 11 17 1015.7 1015.6 0.0
11/10:00am 28.0 26.9 16.3 49 7.2 ESE 17 28 9 15 1015.8 1015.7 0.0
11/09:30am 27.6 26.3 16.9 52 6.7 SE 19 26 10 14 1015.9 1015.8 0.0
11/09:00am 27.2 25.3 16.8 53 6.5 ESE 22 32 12 17 1016.0 1015.9 0.0
11/08:30am 26.7 26.1 17.5 57 5.8 SSE 17 28 9 15 1016.2 1016.1 0.0
11/08:00am 25.9 24.8 17.3 59 5.4 SE 19 30 10 16 1016.3 1016.2 0.0
11/07:30am 25.3 25.1 17.5 62 4.9 SSE 15 24 8 13 1016.2 1016.1 0.0
11/07:00am 24.2 23.4 17.2 65 4.3 SSE 17 28 9 15 1016.3 1016.2 0.0
11/06:30am 23.8 23.9 17.5 68 3.9 SSE 13 19 7 10 1016.0 1015.9 0.0
11/06:00am 23.1 24.1 17.8 72 3.3 SSE 9 15 5 8 1015.6 1015.5 0.0
11/05:30am 22.2 22.8 17.8 76 2.7 SSE 11 19 6 10 1015.4 1015.3 0.0
11/05:00am 21.7 22.7 17.7 78 2.5 S 9 15 5 8 1015.2 1015.1 0.0
11/04:30am 21.2 22.4 17.4 79 2.3 S 7 9 4 5 1015.0 1014.9 0.0
11/04:00am 21.5 22.4 17.5 78 2.5 S 9 15 5 8 1015.0 1014.9 0.0
11/03:30am 21.6 22.4 17.4 77 2.6 S 9 11 5 6 1014.7 1014.6 0.0
11/03:00am 21.6 22.7 17.2 76 2.7 SSW 7 9 4 5 1014.9 1014.8 0.0
11/02:30am 22.0 23.1 17.2 74 2.9 S 7 9 4 5 1015.1 1015.0 0.0
11/02:00am 22.5 23.3 17.2 72 3.3 S 9 13 5 7 1015.2 1015.1 0.0
11/01:30am 22.9 23.7 17.4 71 3.4 SSE 9 15 5 8 1015.6 1015.5 0.0
11/01:00am 23.2 23.3 17.4 70 3.6 SSE 13 20 7 11 1015.9 1015.8 0.0
11/12:30am 23.0 23.9 17.5 71 3.4 S 9 13 5 7 1016.4 1016.3 0.0
11/12:00am 23.5 24.6 17.9 71 3.5 SSE 9 13 5 7 1016.5 1016.4 0.0
 
Date/Time
EST
Temp
°C
App
Temp
°C
Dew
Point
°C
Rel
Hum
%
Delta-T
°C
Wind Press
QNH
hPa
Press
MSL
hPa
Rain since
9am
mm
Dir  Spd
km/h
Gust
km/h
Spd
kts
Gust
kts
10/11:30pm 24.0 24.4 18.2 70 3.6 SSE 13 17 7 9 1016.7 1016.6 0.0
10/11:00pm 24.1 25.5 18.7 72 3.4 SE 9 17 5 9 1016.9 1016.8 0.0
10/10:30pm 24.6 24.5 18.8 70 3.7 SE 17 24 9 13 1017.1 1017.0 0.0
10/10:00pm 25.0 25.0 18.9 69 3.9 SE 17 26 9 14 1017.0 1016.9 0.0
10/09:30pm 25.2 25.2 18.9 68 4.0 SE 17 20 9 11 1016.9 1016.8 0.0
10/09:00pm 25.5 25.1 18.9 67 4.2 SE 19 28 10 15 1016.7 1016.6 0.0
10/08:30pm 25.7 24.4 19.1 67 4.2 ESE 24 33 13 18 1016.5 1016.4 0.0
10/08:00pm 26.0 24.5 19.4 67 4.2 ESE 26 33 14 18 1016.4 1016.3 0.0
10/07:30pm 25.9 24.5 18.8 65 4.5 ESE 24 33 13 18 1016.2 1016.1 0.0
10/07:00pm 26.2 24.6 19.3 65 4.4 ESE 26 35 14 19 1015.6 1015.5 0.0
10/06:30pm 26.4 24.1 19.3 65 4.6 ESE 30 44 16 24 1015.0 1014.9 0.0
10/06:00pm 26.9 23.6 19.3 63 4.9 E 35 46 19 25 1014.8 1014.7 0.0
10/05:30pm 27.4 24.8 20.0 64 4.8 E 33 44 18 24 1014.4 1014.3 0.0
10/05:00pm 27.6 25.0 19.9 63 5.0 E 33 46 18 25 1014.3 1014.2 0.0
10/04:30pm 28.4 26.1 19.3 57 5.9 E 30 37 16 20 1014.1 1014.0 0.0
10/04:00pm 28.3 25.5 19.0 57 6.0 E 32 43 17 23 1014.2 1014.1 0.0
10/03:30pm 29.2 26.5 19.2 54 6.5 E 32 39 17 21 1014.1 1014.0 0.0
10/03:00pm 29.2 26.1 18.3 51 7.0 ESE 32 41 17 22 1014.3 1014.2 0.0
10/02:30pm 29.3 26.5 19.0 53 6.7 E 32 41 17 22 1014.6 1014.5 0.0
10/02:00pm 29.1 26.0 18.5 52 6.8 ESE 32 43 17 23 1014.9 1014.8 0.0
10/01:30pm 29.5 26.9 18.6 52 7.0 ESE 30 39 16 21 1015.0 1014.9 0.0
10/01:00pm 29.4 28.6 20.0 57 6.2 E 24 32 13 17 1015.2 1015.1 0.0
10/12:30pm 29.6 28.1 17.8 49 7.5 E 22 30 12 16 1015.4 1015.3 0.0
10/12:00pm 29.8 29.1 18.3 50 7.4 E 19 28 10 15 1015.8 1015.7 0.0
10/11:30am 28.9 27.3 17.4 49 7.3 E 22 33 12 18 1016.2 1016.1 0.0
10/11:00am 28.9 26.5 17.4 49 7.3 E 26 33 14 18 1016.5 1016.4 0.0
10/10:30am 28.6 26.9 17.2 50 7.2 ESE 22 30 12 16 1016.6 1016.5 0.0
10/10:00am 28.4 27.6 18.5 55 6.3 E 20 30 11 16 1016.6 1016.5 0.0
10/09:30am 27.9 27.1 17.1 51 6.8 SE 17 24 9 13 1016.8 1016.7 0.0
10/09:00am 27.7 27.1 17.5 53 6.4 SE 17 24 9 13 1016.7 1016.6 0.0
10/08:30am 27.7 27.5 18.4 57 5.9 SE 17 24 9 13 1016.5 1016.4 0.0
10/08:00am 26.5 26.3 18.4 61 5.1 SE 17 24 9 13 1016.5 1016.4 0.0
10/07:30am 25.9 25.7 18.6 64 4.6 SSE 17 24 9 13 1016.4 1016.3 0.0
10/07:00am 25.4 25.9 19.3 69 3.9 SSE 15 20 8 11 1016.2 1016.1 0.0
10/06:30am 24.6 26.3 20.1 76 2.9 SSE 11 17 6 9 1015.9 1015.8 0.0
10/06:00am 23.9 26.3 20.0 79 2.5 SSE 7 11 4 6 1015.5 1015.4 0.0
10/05:30am 23.0 25.6 20.0 83 1.9 S 6 9 3 5 1015.2 1015.1 0.0
10/05:00am 22.8 24.9 20.1 85 1.7 SSE 9 13 5 7 1014.9 1014.8 0.0
10/04:30am 22.6 25.0 20.1 86 1.6 S 7 11 4 6 1014.8 1014.7 0.0
10/04:00am 23.0 25.6 20.5 86 1.6 SSE 7 11 4 6 1014.6 1014.5 0.0
10/03:30am 23.0 25.6 20.5 86 1.6 S 7 13 4 7 1014.6 1014.5 0.0
10/03:00am 23.2 25.5 20.7 86 1.6 S 9 15 5 8 1014.7 1014.6 0.0
10/02:30am 23.8 26.3 21.1 85 1.8 SE 9 11 5 6 1014.9 1014.8 0.0
10/02:00am 23.9 26.5 21.2 85 1.8 ESE 9 13 5 7 1015.3 1015.2 0.0
10/01:30am 23.9 26.4 21.0 84 1.9 S 9 17 5 9 1015.9 1015.8 0.0
10/01:00am 24.4 27.3 21.1 82 2.2 SE 7 9 4 5 1015.5 1015.4 0.0
10/12:30am 24.4 28.2 20.9 81 2.3 NE 2 7 1 4 1015.2 1015.1 0.0
10/12:00am 24.9 26.5 20.8 78 2.7 ESE 13 20 7 11 1015.1 1015.0 0.0

Other Formats:

Comma delimited format used in spreadsheet applications
http://www.bom.gov.au/fwo/IDQ60801/IDQ60801.94381.axf

JavaScript Object Notation format (JSON) in row-major order
http://www.bom.gov.au/fwo/IDQ60801/IDQ60801.94381.json